Terminal Aerodrome Forecast
Issued by NWS Knoxville/Tri Cities, TN

Home | Current Version | Previous Version | Text Only | Print | Product List | Glossary On
Versions: 1 2 3 4 5 6 7 8 9 10 11 12 13
000
FTUS44 KMRX 010520
TAFTYS
TAF
KTYS 010520Z 0106/0206 20008KT 6SM -SHRA SCT040 BKN070
     FM010900 22015KT 5SM -SHRA BR VCTS BKN030 OVC050CB
     FM011400 23014G25KT 6SM -SHRA BR BKN035
     FM011600 23016G26KT P6SM BKN060
     FM011800 24015G24KT P6SM SKC=

USA.gov is the U.S. government's official web portal to all federal, state and local government web resources and services.